Time;durP1;ratioP1;P1;durP2;ratioP2;P2;SDS_P1;SDS_P2;PMS_P1;PMS_P2;Temp;Humidity;BMP_temperature;BMP_pressure;BME280_temperature;BME280_humidity;BME280_pressure;Samples;Min_cycle;Max_cycle;Signal;HPM_P1;HPM_P2
2024/01/15 00:00:28;;;;;;;;;;;2.10;99.90;;;;;;5075209;28;19923;-60
2024/01/15 00:02:53;;;;;;;;;;;2.10;99.90;;;;;;5081408;28;19924;-59
2024/01/15 00:05:19;;;;;;;;;;;2.00;99.90;;;;;;5080158;28;19930;-59
2024/01/15 00:07:44;;;;;;;;;;;1.90;99.90;;;;;;5077687;28;20026;-59
2024/01/15 00:10:10;;;;;;;;;;;1.90;99.90;;;;;;5083130;28;20389;-60
2024/01/15 00:12:35;;;;;;;;;;;1.80;99.90;;;;;;5082821;28;19927;-60
2024/01/15 00:15:01;;;;;;;;;;;1.70;99.90;;;;;;5083216;28;19937;-59
2024/01/15 00:17:27;;;;;;;;;;;1.70;99.90;;;;;;5075680;28;19964;-58
2024/01/15 00:19:52;;;;;;;;;;;1.70;99.90;;;;;;5086794;28;19920;-59
2024/01/15 00:22:18;;;;;;;;;;;1.70;99.90;;;;;;5084675;28;20366;-60
2024/01/15 00:24:43;;;;;;;;;;;1.70;99.90;;;;;;5089735;28;19920;-58
2024/01/15 00:27:09;;;;;;;;;;;1.70;99.90;;;;;;5085069;28;20661;-57
2024/01/15 00:29:34;;;;;;;;;;;1.70;99.90;;;;;;5083563;28;19931;-59
2024/01/15 00:32:00;;;;;;;;;;;1.70;99.90;;;;;;5079416;27;19930;-59
2024/01/15 00:34:26;;;;;;;;;;;1.80;99.90;;;;;;5084768;28;20343;-59
2024/01/15 00:36:51;;;;;;;;;;;1.70;99.90;;;;;;5085804;28;20516;-60
2024/01/15 00:39:17;;;;;;;;;;;1.70;99.90;;;;;;5087165;28;19934;-59
2024/01/15 00:41:42;;;;;;;;;;;1.80;99.90;;;;;;5079148;28;19924;-58
2024/01/15 00:44:08;;;;;;;;;;;1.80;99.90;;;;;;5084755;27;20413;-60
2024/01/15 00:46:40;;;;;;;;;;;1.80;99.90;;;;;;5070123;28;20046;-59
2024/01/15 00:49:06;;;;;;;;;;;1.80;99.90;;;;;;5081426;28;19930;-59
2024/01/15 00:51:31;;;;;;;;;;;1.80;99.90;;;;;;5081997;28;19924;-58
2024/01/15 00:53:57;;;;;;;;;;;1.80;99.90;;;;;;5064392;28;19977;-59
2024/01/15 00:56:23;;;;;;;;;;;1.80;99.90;;;;;;5048315;28;20039;-59
2024/01/15 00:58:48;;;;;;;;;;;1.80;99.90;;;;;;5082540;28;19923;-60
2024/01/15 01:01:14;;;;;;;;;;;1.80;99.90;;;;;;5081955;28;19924;-60
2024/01/15 01:03:39;;;;;;;;;;;1.80;99.90;;;;;;5083996;28;19945;-59
2024/01/15 01:06:05;;;;;;;;;;;1.80;99.90;;;;;;5078521;28;20034;-58
2024/01/15 01:08:30;;;;;;;;;;;1.90;99.90;;;;;;5078210;28;20329;-60
2024/01/15 01:10:56;;;;;;;;;;;1.80;99.90;;;;;;5078884;28;19923;-59
2024/01/15 01:13:22;;;;;;;;;;;1.80;99.90;;;;;;5086299;28;20406;-59
2024/01/15 01:15:48;;;;;;;;;;;1.80;99.90;;;;;;5063104;28;19935;-59
2024/01/15 01:18:13;;;;;;;;;;;1.80;99.90;;;;;;5081479;28;19931;-59
2024/01/15 01:20:39;;;;;;;;;;;1.80;99.90;;;;;;5061825;28;19928;-60
2024/01/15 01:23:05;;;;;;;;;;;1.80;99.90;;;;;;5063193;28;20031;-60
2024/01/15 01:25:30;;;;;;;;;;;1.80;99.90;;;;;;5080212;28;20496;-60
2024/01/15 01:27:56;;;;;;;;;;;1.80;99.90;;;;;;5086267;28;19946;-59
2024/01/15 01:30:21;;;;;;;;;;;1.80;99.90;;;;;;5064853;28;19928;-58
2024/01/15 01:32:47;;;;;;;;;;;1.80;99.90;;;;;;5082598;28;19928;-60
2024/01/15 01:35:12;;;;;;;;;;;1.90;99.90;;;;;;5081443;28;19931;-59
2024/01/15 01:37:38;;;;;;;;;;;2.00;99.90;;;;;;5055364;28;19923;-60
2024/01/15 01:40:05;;;;;;;;;;;2.00;99.90;;;;;;5088119;28;19924;-58
2024/01/15 01:42:30;;;;;;;;;;;2.00;99.90;;;;;;5064315;28;19927;-58
2024/01/15 01:44:56;;;;;;;;;;;2.00;99.90;;;;;;5065444;28;20021;-58
2024/01/15 01:47:21;;;;;;;;;;;2.00;99.90;;;;;;5084317;28;19924;-59
2024/01/15 01:49:47;;;;;;;;;;;2.10;99.90;;;;;;5086762;28;19946;-59
2024/01/15 01:52:13;;;;;;;;;;;2.10;99.90;;;;;;5087419;28;19928;-59
2024/01/15 01:54:39;;;;;;;;;;;2.10;99.90;;;;;;5062707;28;19927;-60
2024/01/15 01:57:05;;;;;;;;;;;2.10;99.90;;;;;;5076420;28;19967;-59
2024/01/15 01:59:32;;;;;;;;;;;2.10;99.90;;;;;;5070434;28;19924;-60
2024/01/15 02:01:58;;;;;;;;;;;2.20;99.90;;;;;;5078802;28;20550;-60
2024/01/15 02:04:24;;;;;;;;;;;2.10;99.90;;;;;;5077975;28;19932;-60
2024/01/15 02:06:50;;;;;;;;;;;2.10;99.90;;;;;;5085292;28;19984;-58
2024/01/15 02:09:16;;;;;;;;;;;2.10;99.90;;;;;;5083298;28;20399;-60
2024/01/15 02:11:42;;;;;;;;;;;2.10;99.90;;;;;;5081047;28;19965;-59
2024/01/15 02:14:08;;;;;;;;;;;2.10;99.90;;;;;;5059671;28;20339;-59
2024/01/15 02:16:34;;;;;;;;;;;2.10;99.90;;;;;;5079776;28;19953;-60
2024/01/15 02:19:00;;;;;;;;;;;2.10;99.90;;;;;;5062511;28;20495;-59
2024/01/15 02:21:28;;;;;;;;;;;2.30;99.90;;;;;;5060172;28;20811;-60
2024/01/15 02:23:54;;;;;;;;;;;2.20;99.90;;;;;;5062718;28;19976;-59
2024/01/15 02:26:20;;;;;;;;;;;2.20;99.90;;;;;;5081528;28;20382;-58
2024/01/15 02:28:45;;;;;;;;;;;2.20;99.90;;;;;;5084281;28;19955;-59
2024/01/15 02:31:11;;;;;;;;;;;2.20;99.90;;;;;;5053042;28;19927;-59
2024/01/15 02:33:36;;;;;;;;;;;2.30;99.90;;;;;;5083965;28;20291;-59
2024/01/15 02:36:02;;;;;;;;;;;2.30;99.90;;;;;;5069950;28;19934;-60
2024/01/15 02:38:28;;;;;;;;;;;2.30;99.90;;;;;;5082558;28;19924;-59
2024/01/15 02:40:53;;;;;;;;;;;2.30;99.90;;;;;;5063923;28;20030;-59
2024/01/15 02:43:19;;;;;;;;;;;2.30;99.90;;;;;;5082753;28;20071;-59
2024/01/15 02:45:46;;;;;;;;;;;2.30;99.90;;;;;;5063586;28;19935;-59
2024/01/15 02:48:11;;;;;;;;;;;2.40;99.90;;;;;;5082906;28;19924;-59
2024/01/15 02:50:37;;;;;;;;;;;2.30;99.90;;;;;;5066262;28;19930;-58
2024/01/15 02:53:02;;;;;;;;;;;2.30;99.90;;;;;;5081906;28;19971;-59
2024/01/15 02:55:29;;;;;;;;;;;2.30;99.90;;;;;;5062429;28;20409;-59
2024/01/15 02:57:55;;;;;;;;;;;2.20;99.90;;;;;;5083341;28;19981;-59
2024/01/15 03:00:20;;;;;;;;;;;2.20;99.90;;;;;;5078515;28;20388;-59
2024/01/15 03:02:46;;;;;;;;;;;2.20;99.90;;;;;;5080815;28;20425;-59
2024/01/15 03:05:11;;;;;;;;;;;2.20;99.90;;;;;;5078456;28;19927;-59
2024/01/15 03:07:37;;;;;;;;;;;2.20;99.90;;;;;;5080789;28;19927;-60
2024/01/15 03:10:03;;;;;;;;;;;2.20;99.90;;;;;;5079508;28;19924;-59
2024/01/15 03:12:28;;;;;;;;;;;2.10;99.90;;;;;;5061533;28;20552;-59
2024/01/15 03:14:54;;;;;;;;;;;2.10;99.90;;;;;;5052984;28;19932;-59
2024/01/15 03:17:19;;;;;;;;;;;2.10;99.90;;;;;;5062745;28;19924;-58
2024/01/15 03:19:45;;;;;;;;;;;2.10;99.90;;;;;;5060256;28;20316;-60
2024/01/15 03:22:11;;;;;;;;;;;2.10;99.90;;;;;;5061653;28;19924;-58
2024/01/15 03:24:36;;;;;;;;;;;2.10;99.90;;;;;;5063396;28;19928;-59
2024/01/15 03:27:02;;;;;;;;;;;2.10;99.90;;;;;;5062529;28;20002;-59
2024/01/15 03:29:28;;;;;;;;;;;2.10;99.90;;;;;;5063742;28;20011;-59
2024/01/15 03:31:53;;;;;;;;;;;2.20;99.90;;;;;;5063779;28;20004;-58
2024/01/15 03:34:19;;;;;;;;;;;2.20;99.90;;;;;;5070748;28;19978;-60
2024/01/15 03:36:44;;;;;;;;;;;2.20;99.90;;;;;;5069592;28;19928;-60
2024/01/15 03:39:10;;;;;;;;;;;2.20;99.90;;;;;;5060906;28;20386;-59
2024/01/15 03:41:36;;;;;;;;;;;2.20;99.90;;;;;;5085627;28;19928;-60
2024/01/15 03:44:01;;;;;;;;;;;2.20;99.90;;;;;;5066393;28;19928;-59
2024/01/15 03:46:27;;;;;;;;;;;2.20;99.90;;;;;;5080718;28;20345;-60
2024/01/15 03:48:52;;;;;;;;;;;2.20;99.90;;;;;;5083733;28;19928;-59
2024/01/15 03:51:18;;;;;;;;;;;2.30;99.90;;;;;;5081584;28;20013;-59
2024/01/15 03:53:44;;;;;;;;;;;2.20;99.90;;;;;;5092413;28;20463;-59
2024/01/15 03:56:09;;;;;;;;;;;2.30;99.90;;;;;;5089481;28;19930;-58
2024/01/15 03:58:35;;;;;;;;;;;2.30;99.90;;;;;;5088188;28;19985;-59
2024/01/15 04:01:01;;;;;;;;;;;2.30;99.90;;;;;;5085777;28;20378;-58
2024/01/15 04:03:26;;;;;;;;;;;2.40;99.90;;;;;;5088802;28;19928;-60
2024/01/15 04:05:52;;;;;;;;;;;2.40;99.90;;;;;;5068161;28;20386;-59
2024/01/15 04:08:17;;;;;;;;;;;2.40;99.90;;;;;;5085306;28;19931;-60
2024/01/15 04:10:43;;;;;;;;;;;2.40;99.90;;;;;;5067401;28;20146;-59
2024/01/15 04:13:09;;;;;;;;;;;2.50;99.90;;;;;;5090902;28;20069;-60
2024/01/15 04:15:34;;;;;;;;;;;2.50;99.90;;;;;;5074776;28;19928;-60
2024/01/15 04:18:01;;;;;;;;;;;2.60;99.90;;;;;;5087309;28;20890;-58
2024/01/15 04:20:26;;;;;;;;;;;2.50;99.90;;;;;;5080777;28;19928;-60
2024/01/15 04:22:52;;;;;;;;;;;2.50;99.90;;;;;;5090027;28;19947;-59
2024/01/15 04:25:17;;;;;;;;;;;2.50;99.90;;;;;;5087364;28;20026;-59
2024/01/15 04:27:43;;;;;;;;;;;2.40;99.90;;;;;;5082904;28;19931;-58
2024/01/15 04:30:09;;;;;;;;;;;2.40;99.90;;;;;;5079536;28;19972;-59
2024/01/15 04:32:34;;;;;;;;;;;2.30;99.90;;;;;;5078477;28;19935;-60
2024/01/15 04:35:00;;;;;;;;;;;2.40;99.90;;;;;;5087624;28;19977;-59
2024/01/15 04:37:26;;;;;;;;;;;2.20;99.90;;;;;;5091698;28;19937;-60
2024/01/15 04:39:54;;;;;;;;;;;2.20;99.90;;;;;;5078033;28;19924;-59
2024/01/15 04:42:23;;;;;;;;;;;2.20;99.90;;;;;;5081658;28;20000;-58
2024/01/15 04:44:48;;;;;;;;;;;2.10;99.90;;;;;;5082613;28;20581;-60
2024/01/15 04:47:14;;;;;;;;;;;2.00;99.90;;;;;;5081363;28;19982;-60
2024/01/15 04:49:40;;;;;;;;;;;1.90;99.90;;;;;;5084828;28;19966;-59
2024/01/15 04:52:05;;;;;;;;;;;1.90;99.90;;;;;;5070178;28;19962;-59
2024/01/15 04:54:31;;;;;;;;;;;1.80;99.90;;;;;;5084605;28;19930;-60
2024/01/15 04:56:56;;;;;;;;;;;1.80;99.90;;;;;;5084483;28;20000;-60
2024/01/15 04:59:22;;;;;;;;;;;1.80;99.90;;;;;;5080887;28;19920;-59
2024/01/15 05:01:48;;;;;;;;;;;1.70;99.90;;;;;;5084088;27;19924;-59
2024/01/15 05:04:14;;;;;;;;;;;1.70;99.90;;;;;;5085645;28;20039;-59
2024/01/15 05:06:40;;;;;;;;;;;1.70;99.90;;;;;;5067050;28;21613;-59
2024/01/15 05:09:05;;;;;;;;;;;1.70;99.90;;;;;;5084782;28;19927;-60
2024/01/15 05:11:31;;;;;;;;;;;1.70;99.90;;;;;;5085001;28;19924;-59
2024/01/15 05:13:56;;;;;;;;;;;1.70;99.90;;;;;;5064846;28;19961;-60
2024/01/15 05:16:22;;;;;;;;;;;1.70;99.90;;;;;;5062625;28;19923;-60
2024/01/15 05:18:48;;;;;;;;;;;1.70;99.90;;;;;;5065884;28;20309;-58
2024/01/15 05:21:13;;;;;;;;;;;1.70;99.90;;;;;;5063845;28;19924;-59
2024/01/15 05:23:39;;;;;;;;;;;1.60;99.90;;;;;;5083656;28;20082;-60
2024/01/15 05:26:04;;;;;;;;;;;1.70;99.90;;;;;;5062880;28;19928;-59
2024/01/15 05:28:30;;;;;;;;;;;1.60;99.90;;;;;;5061765;28;20428;-60
2024/01/15 05:30:56;;;;;;;;;;;1.60;99.90;;;;;;5065418;28;19976;-59
2024/01/15 05:33:22;;;;;;;;;;;1.50;99.90;;;;;;5085508;28;20549;-59
2024/01/15 05:35:49;;;;;;;;;;;1.50;99.90;;;;;;5084023;28;20576;-59
2024/01/15 05:38:14;;;;;;;;;;;1.50;99.90;;;;;;5084148;27;20314;-60
2024/01/15 05:40:40;;;;;;;;;;;1.40;99.90;;;;;;5079185;28;19931;-59
2024/01/15 05:43:05;;;;;;;;;;;1.40;99.90;;;;;;5081419;28;19963;-58
2024/01/15 05:45:31;;;;;;;;;;;1.40;99.90;;;;;;5047276;28;20591;-60
2024/01/15 05:47:56;;;;;;;;;;;1.30;99.90;;;;;;5078412;28;19977;-60
2024/01/15 05:50:22;;;;;;;;;;;1.30;99.90;;;;;;5056509;28;19924;-59
2024/01/15 05:52:48;;;;;;;;;;;1.30;99.90;;;;;;5065688;28;20402;-60
2024/01/15 05:55:13;;;;;;;;;;;1.20;99.90;;;;;;5054635;28;20392;-60
2024/01/15 05:57:39;;;;;;;;;;;1.30;99.90;;;;;;5078835;28;20650;-59
2024/01/15 06:00:05;;;;;;;;;;;1.30;99.90;;;;;;5049834;28;19928;-60
2024/01/15 06:02:30;;;;;;;;;;;1.30;99.90;;;;;;5074849;28;20775;-59
2024/01/15 06:04:56;;;;;;;;;;;1.30;99.90;;;;;;5060625;28;20574;-59
2024/01/15 06:07:22;;;;;;;;;;;1.30;99.90;;;;;;5061701;28;20378;-59
2024/01/15 06:09:48;;;;;;;;;;;1.30;99.90;;;;;;5073996;28;20019;-59
2024/01/15 06:12:13;;;;;;;;;;;1.30;99.90;;;;;;5074718;28;20386;-60
2024/01/15 06:14:39;;;;;;;;;;;1.40;99.90;;;;;;5057444;28;19935;-59
2024/01/15 06:17:04;;;;;;;;;;;1.40;99.90;;;;;;5077190;28;19935;-59
2024/01/15 06:19:30;;;;;;;;;;;1.40;99.90;;;;;;5073059;28;19928;-59
2024/01/15 06:21:56;;;;;;;;;;;1.40;99.90;;;;;;5074080;28;19928;-60
2024/01/15 06:24:21;;;;;;;;;;;1.30;99.90;;;;;;5079289;28;20865;-60
2024/01/15 06:26:47;;;;;;;;;;;1.30;99.90;;;;;;5071870;28;19928;-60
2024/01/15 06:29:13;;;;;;;;;;;1.40;99.90;;;;;;5074901;28;19927;-59
2024/01/15 06:31:38;;;;;;;;;;;1.30;99.90;;;;;;5080915;28;20038;-59
2024/01/15 06:34:04;;;;;;;;;;;1.30;99.90;;;;;;5057138;28;20438;-60
2024/01/15 06:36:30;;;;;;;;;;;1.30;99.90;;;;;;5073295;28;19927;-59
2024/01/15 06:38:55;;;;;;;;;;;1.30;99.90;;;;;;5079313;28;19954;-58
2024/01/15 06:41:21;;;;;;;;;;;1.30;99.90;;;;;;5080526;28;19920;-60
2024/01/15 06:43:47;;;;;;;;;;;1.30;99.90;;;;;;5060473;28;19957;-60
2024/01/15 06:46:19;;;;;;;;;;;1.30;99.90;;;;;;5082919;28;19967;-58
2024/01/15 06:48:44;;;;;;;;;;;1.20;99.90;;;;;;5061381;28;19932;-58
2024/01/15 06:51:10;;;;;;;;;;;1.30;99.90;;;;;;5069810;28;19979;-59
2024/01/15 06:53:35;;;;;;;;;;;1.20;99.90;;;;;;5061463;28;19928;-59
2024/01/15 06:56:01;;;;;;;;;;;1.20;99.90;;;;;;5084238;28;20390;-58
2024/01/15 06:58:26;;;;;;;;;;;1.30;99.90;;;;;;5083237;28;19967;-59
2024/01/15 07:00:52;;;;;;;;;;;1.20;99.90;;;;;;5080580;28;19980;-59
2024/01/15 07:03:18;;;;;;;;;;;1.30;99.90;;;;;;5065038;28;19927;-64
2024/01/15 07:05:43;;;;;;;;;;;1.30;99.90;;;;;;5064000;28;19923;-64
2024/01/15 07:08:09;;;;;;;;;;;1.30;99.90;;;;;;5069617;28;20298;-63
2024/01/15 07:10:34;;;;;;;;;;;1.30;99.90;;;;;;5068814;28;20042;-64
2024/01/15 07:13:00;;;;;;;;;;;1.30;99.90;;;;;;5053040;28;19931;-64
2024/01/15 07:15:26;;;;;;;;;;;1.30;99.90;;;;;;5059190;28;20858;-63
2024/01/15 07:17:52;;;;;;;;;;;1.30;99.90;;;;;;5052400;28;19931;-63
2024/01/15 07:20:19;;;;;;;;;;;1.20;99.90;;;;;;5065212;28;20298;-63
2024/01/15 07:22:45;;;;;;;;;;;1.20;99.90;;;;;;5062162;28;20002;-63
2024/01/15 07:25:10;;;;;;;;;;;1.20;99.90;;;;;;5053645;28;19928;-63
2024/01/15 07:27:36;;;;;;;;;;;1.20;99.90;;;;;;5057931;28;20373;-64
2024/01/15 07:30:04;;;;;;;;;;;1.20;99.90;;;;;;5069974;28;20055;-64
2024/01/15 07:32:31;;;;;;;;;;;1.10;99.90;;;;;;5069181;28;20325;-63
2024/01/15 07:34:57;;;;;;;;;;;1.10;99.90;;;;;;5039999;28;19931;-64
2024/01/15 07:37:23;;;;;;;;;;;1.10;99.90;;;;;;5069579;28;19930;-63
2024/01/15 07:39:49;;;;;;;;;;;1.10;99.90;;;;;;5066779;28;20374;-64
2024/01/15 07:42:14;;;;;;;;;;;1.10;99.90;;;;;;5056042;28;19967;-64
2024/01/15 07:44:40;;;;;;;;;;;1.10;99.90;;;;;;5067007;28;20040;-65
2024/01/15 07:47:05;;;;;;;;;;;1.10;99.90;;;;;;5067249;28;20217;-63
2024/01/15 07:49:31;;;;;;;;;;;1.10;99.90;;;;;;5051917;28;20706;-63
2024/01/15 07:51:57;;;;;;;;;;;1.20;99.90;;;;;;5079468;28;19928;-63
2024/01/15 07:54:23;;;;;;;;;;;1.20;99.90;;;;;;5069112;28;20798;-64
2024/01/15 07:56:59;;;;;;;;;;;1.20;99.90;;;;;;5088289;28;20408;-64
2024/01/15 07:59:24;;;;;;;;;;;1.20;99.90;;;;;;5086717;28;19967;-63
2024/01/15 08:01:51;;;;;;;;;;;1.20;99.90;;;;;;5085863;28;20587;-62
2024/01/15 08:04:17;;;;;;;;;;;1.20;99.90;;;;;;5069257;28;19931;-65
2024/01/15 08:06:42;;;;;;;;;;;1.20;99.90;;;;;;5095126;28;19987;-64
2024/01/15 08:09:08;;;;;;;;;;;1.20;99.90;;;;;;5067498;28;19924;-63
2024/01/15 08:11:34;;;;;;;;;;;1.10;99.90;;;;;;5071353;28;19928;-64
2024/01/15 08:14:00;;;;;;;;;;;1.20;99.90;;;;;;5092125;28;20302;-63
2024/01/15 08:16:27;;;;;;;;;;;1.20;99.90;;;;;;5078880;28;19948;-64
2024/01/15 08:18:53;;;;;;;;;;;1.10;99.90;;;;;;5083403;28;19932;-63
2024/01/15 08:21:19;;;;;;;;;;;1.20;99.90;;;;;;5059390;28;19931;-63
2024/01/15 08:23:44;;;;;;;;;;;1.10;99.90;;;;;;5089087;27;19947;-63
2024/01/15 08:26:10;;;;;;;;;;;1.10;99.90;;;;;;5051850;28;19923;-64
2024/01/15 08:28:36;;;;;;;;;;;1.20;99.90;;;;;;5086324;28;19924;-62
2024/01/15 08:31:02;;;;;;;;;;;1.10;99.90;;;;;;5091403;28;19923;-63
2024/01/15 08:33:28;;;;;;;;;;;1.10;99.90;;;;;;5082078;28;19927;-64
2024/01/15 08:35:54;;;;;;;;;;;1.20;99.90;;;;;;5086686;28;19928;-64
2024/01/15 08:38:20;;;;;;;;;;;1.20;99.90;;;;;;5073775;28;19954;-64
2024/01/15 08:40:46;;;;;;;;;;;1.30;99.90;;;;;;5072526;28;19936;-64
2024/01/15 08:43:11;;;;;;;;;;;1.30;99.90;;;;;;5086977;28;19924;-62
2024/01/15 08:45:38;;;;;;;;;;;1.30;99.90;;;;;;5094124;28;19927;-63
2024/01/15 08:48:04;;;;;;;;;;;1.40;99.90;;;;;;5085973;28;19924;-64
2024/01/15 08:50:29;;;;;;;;;;;1.40;99.90;;;;;;5071440;27;20427;-63
2024/01/15 08:52:55;;;;;;;;;;;1.40;99.90;;;;;;5088910;28;19939;-63
2024/01/15 08:55:22;;;;;;;;;;;1.50;99.90;;;;;;5053918;28;19928;-64
2024/01/15 08:57:48;;;;;;;;;;;1.40;99.90;;;;;;5033690;28;20268;-63
2024/01/15 09:00:14;;;;;;;;;;;1.40;99.90;;;;;;5073235;28;19939;-63
2024/01/15 09:02:40;;;;;;;;;;;1.40;99.90;;;;;;5072933;28;19920;-63
2024/01/15 09:05:06;;;;;;;;;;;1.40;99.90;;;;;;5065369;28;19923;-64
2024/01/15 09:07:32;;;;;;;;;;;1.40;99.90;;;;;;5051185;28;20508;-63
2024/01/15 09:09:59;;;;;;;;;;;1.40;99.90;;;;;;5066691;28;19927;-63
2024/01/15 09:12:25;;;;;;;;;;;1.40;99.90;;;;;;5073336;28;19931;-64
2024/01/15 09:14:51;;;;;;;;;;;1.40;99.90;;;;;;5070208;28;20018;-62
2024/01/15 09:17:17;;;;;;;;;;;1.40;99.90;;;;;;5064287;28;20061;-63
2024/01/15 09:19:44;;;;;;;;;;;1.40;99.90;;;;;;5072686;28;20343;-63
2024/01/15 09:22:09;;;;;;;;;;;1.40;99.90;;;;;;5065716;28;19928;-64
2024/01/15 09:24:36;;;;;;;;;;;1.40;99.90;;;;;;5059574;28;20385;-64
2024/01/15 09:27:02;;;;;;;;;;;1.40;99.90;;;;;;5050993;28;19957;-63
2024/01/15 09:29:28;;;;;;;;;;;1.40;99.90;;;;;;5067585;28;19924;-64
2024/01/15 09:31:54;;;;;;;;;;;1.50;99.90;;;;;;5066189;28;19961;-63
2024/01/15 09:34:19;;;;;;;;;;;1.40;99.90;;;;;;5066661;28;19934;-64
2024/01/15 09:36:45;;;;;;;;;;;1.40;99.90;;;;;;5067646;28;20010;-64
2024/01/15 09:39:11;;;;;;;;;;;1.40;99.90;;;;;;5068839;28;19934;-63
2024/01/15 09:41:37;;;;;;;;;;;1.40;99.90;;;;;;5069581;28;19928;-64
2024/01/15 09:44:03;;;;;;;;;;;1.50;99.90;;;;;;5075649;28;19927;-64
2024/01/15 09:46:31;;;;;;;;;;;1.50;99.90;;;;;;5060517;28;22218;-64
2024/01/15 09:48:57;;;;;;;;;;;1.50;99.90;;;;;;5067308;28;20275;-63
2024/01/15 09:51:24;;;;;;;;;;;1.60;99.90;;;;;;5079059;27;19963;-63
2024/01/15 09:53:50;;;;;;;;;;;1.60;99.90;;;;;;5093799;27;19928;-63
2024/01/15 09:56:16;;;;;;;;;;;1.70;99.90;;;;;;5084742;27;19931;-63
2024/01/15 09:58:42;;;;;;;;;;;1.70;99.90;;;;;;5072194;27;20385;-63
2024/01/15 10:01:08;;;;;;;;;;;1.80;99.90;;;;;;5074480;27;19958;-64
2024/01/15 10:03:34;;;;;;;;;;;1.80;99.90;;;;;;5085348;27;19950;-63
2024/01/15 10:06:00;;;;;;;;;;;1.80;99.90;;;;;;5080628;27;20153;-63
2024/01/15 10:08:25;;;;;;;;;;;1.80;99.90;;;;;;5068608;27;19935;-63
2024/01/15 10:10:51;;;;;;;;;;;1.80;99.90;;;;;;5088070;27;19923;-64
2024/01/15 10:13:17;;;;;;;;;;;1.90;99.90;;;;;;5073251;27;20404;-63
2024/01/15 10:15:49;;;;;;;;;;;1.90;99.90;;;;;;5089070;27;20298;-64
2024/01/15 10:18:15;;;;;;;;;;;1.90;99.90;;;;;;5093566;27;19934;-63
2024/01/15 10:20:40;;;;;;;;;;;1.80;99.90;;;;;;5088470;27;19923;-63
2024/01/15 10:23:06;;;;;;;;;;;1.80;99.90;;;;;;5084070;27;19923;-65
2024/01/15 10:25:32;;;;;;;;;;;1.80;99.90;;;;;;5071544;27;19927;-63
2024/01/15 10:28:01;;;;;;;;;;;1.80;99.90;;;;;;5086680;27;20465;-64
2024/01/15 10:30:27;;;;;;;;;;;1.80;99.90;;;;;;5095868;27;20030;-63
2024/01/15 10:32:59;;;;;;;;;;;1.80;99.90;;;;;;5070448;27;20204;-64
2024/01/15 10:35:43;;;;;;;;;;;1.90;99.90;;;;;;5074637;27;20015;-64
2024/01/15 10:38:09;;;;;;;;;;;2.00;99.90;;;;;;5084061;27;19927;-63
2024/01/15 10:40:34;;;;;;;;;;;2.20;99.90;;;;;;5069420;27;19930;-63
2024/01/15 10:43:00;;;;;;;;;;;2.30;99.90;;;;;;5071887;27;19998;-64
2024/01/15 10:45:25;;;;;;;;;;;2.30;99.90;;;;;;5078028;27;19982;-63
2024/01/15 10:47:51;;;;;;;;;;;2.40;99.90;;;;;;5084727;27;20010;-63
2024/01/15 10:50:17;;;;;;;;;;;2.40;99.90;;;;;;5084397;27;20377;-64
2024/01/15 10:52:45;;;;;;;;;;;2.40;99.90;;;;;;5076471;27;20388;-63
2024/01/15 10:55:11;;;;;;;;;;;2.40;99.90;;;;;;5063268;28;20388;-64
2024/01/15 10:57:37;;;;;;;;;;;2.30;99.90;;;;;;5066273;28;19928;-62
2024/01/15 11:00:05;;;;;;;;;;;2.20;99.90;;;;;;5053676;28;20313;-64
2024/01/15 11:02:32;;;;;;;;;;;2.20;99.90;;;;;;5068035;28;20027;-65
2024/01/15 11:04:58;;;;;;;;;;;2.20;99.90;;;;;;5064534;28;19977;-64
2024/01/15 11:07:24;;;;;;;;;;;2.20;99.90;;;;;;5066908;28;20444;-64
2024/01/15 11:09:50;;;;;;;;;;;2.10;99.90;;;;;;5062465;28;19923;-63
2024/01/15 11:12:17;;;;;;;;;;;2.10;99.90;;;;;;5054836;28;19924;-63
2024/01/15 11:14:46;;;;;;;;;;;2.10;99.90;;;;;;5073385;28;20465;-64
2024/01/15 11:17:13;;;;;;;;;;;2.10;99.90;;;;;;5054287;28;20010;-64
2024/01/15 11:19:43;;;;;;;;;;;2.10;99.90;;;;;;5053957;28;19935;-65
2024/01/15 11:22:09;;;;;;;;;;;2.00;99.90;;;;;;5052501;28;20027;-65
2024/01/15 11:24:39;;;;;;;;;;;2.00;99.90;;;;;;5064955;28;20891;-64
2024/01/15 11:27:05;;;;;;;;;;;2.10;99.90;;;;;;5061967;28;20374;-64
2024/01/15 11:29:34;;;;;;;;;;;2.20;99.90;;;;;;5070634;28;19951;-64
2024/01/15 11:32:00;;;;;;;;;;;2.30;99.90;;;;;;5062150;28;19924;-63
2024/01/15 11:34:44;;;;;;;;;;;2.30;99.90;;;;;;5063972;28;20019;-63
2024/01/15 11:37:13;;;;;;;;;;;2.30;99.90;;;;;;5073656;28;19930;-64
2024/01/15 11:39:42;;;;;;;;;;;2.20;99.90;;;;;;5072482;28;19967;-64
2024/01/15 11:42:09;;;;;;;;;;;2.20;99.90;;;;;;5054978;28;19992;-63
2024/01/15 11:44:35;;;;;;;;;;;2.20;99.90;;;;;;5068722;28;19928;-64
2024/01/15 11:47:04;;;;;;;;;;;2.20;99.90;;;;;;5065079;28;19971;-64
2024/01/15 11:49:32;;;;;;;;;;;2.20;99.90;;;;;;5066275;28;19923;-63
2024/01/15 11:51:59;;;;;;;;;;;2.10;99.90;;;;;;5080726;28;20370;-64
2024/01/15 11:54:25;;;;;;;;;;;2.10;99.90;;;;;;5090957;28;19938;-63
2024/01/15 11:56:51;;;;;;;;;;;1.90;99.90;;;;;;5078903;28;19927;-64
2024/01/15 11:59:16;;;;;;;;;;;1.80;99.90;;;;;;5078293;28;19924;-64
2024/01/15 12:01:42;;;;;;;;;;;1.70;99.90;;;;;;5089345;28;19924;-63
2024/01/15 12:04:08;;;;;;;;;;;1.70;99.90;;;;;;5089010;28;19968;-63
2024/01/15 12:06:34;;;;;;;;;;;1.60;99.90;;;;;;5056380;28;20006;-64
2024/01/15 12:09:09;;;;;;;;;;;1.60;99.90;;;;;;5079716;28;19928;-64
2024/01/15 12:11:36;;;;;;;;;;;1.60;99.90;;;;;;5084316;27;19928;-65
2024/01/15 12:14:02;;;;;;;;;;;1.60;99.90;;;;;;5116012;27;19927;-63
2024/01/15 12:16:27;;;;;;;;;;;1.70;99.90;;;;;;5082235;27;19924;-65
2024/01/15 12:18:53;;;;;;;;;;;1.70;99.90;;;;;;5091831;27;20309;-65
2024/01/15 12:21:19;;;;;;;;;;;1.70;99.90;;;;;;5056248;27;20422;-63
2024/01/15 12:23:48;;;;;;;;;;;1.80;99.90;;;;;;5086740;27;19923;-65
2024/01/15 12:26:14;;;;;;;;;;;1.90;99.90;;;;;;5089488;27;20991;-65
2024/01/15 12:28:40;;;;;;;;;;;1.90;99.90;;;;;;5095356;27;19923;-65
2024/01/15 12:31:05;;;;;;;;;;;2.00;99.90;;;;;;5083731;27;19928;-64
2024/01/15 12:33:31;;;;;;;;;;;2.00;99.90;;;;;;5090415;27;20633;-65
2024/01/15 12:35:57;;;;;;;;;;;2.10;99.90;;;;;;5088726;27;19968;-64
2024/01/15 12:38:22;;;;;;;;;;;2.20;99.90;;;;;;5063461;27;19923;-64
2024/01/15 12:40:48;;;;;;;;;;;2.20;99.90;;;;;;5055885;27;19927;-64
2024/01/15 12:43:13;;;;;;;;;;;2.30;99.90;;;;;;5089921;27;19970;-63
2024/01/15 12:45:40;;;;;;;;;;;2.40;99.90;;;;;;5086651;27;19955;-65
2024/01/15 12:48:06;;;;;;;;;;;2.40;99.90;;;;;;5090014;27;19930;-64
2024/01/15 12:50:33;;;;;;;;;;;2.40;99.90;;;;;;5095849;27;19924;-65
2024/01/15 12:52:59;;;;;;;;;;;2.50;99.90;;;;;;5081170;28;19932;-63
2024/01/15 12:55:25;;;;;;;;;;;2.50;99.90;;;;;;5078516;28;20076;-63
2024/01/15 12:57:54;;;;;;;;;;;2.60;99.90;;;;;;5076302;28;20316;-64
2024/01/15 13:00:20;;;;;;;;;;;2.50;99.90;;;;;;5062533;28;19928;-64
2024/01/15 13:02:45;;;;;;;;;;;2.50;99.90;;;;;;5096017;27;19982;-64
2024/01/15 13:05:11;;;;;;;;;;;2.60;99.90;;;;;;5085807;28;20332;-64
2024/01/15 13:07:37;;;;;;;;;;;2.50;99.90;;;;;;5059799;28;19924;-64
2024/01/15 13:10:03;;;;;;;;;;;2.60;99.90;;;;;;5078533;28;19975;-63
2024/01/15 13:12:29;;;;;;;;;;;2.60;99.90;;;;;;5081808;28;19923;-64
2024/01/15 13:14:54;;;;;;;;;;;2.50;99.90;;;;;;5085582;27;19947;-64
2024/01/15 13:17:21;;;;;;;;;;;2.50;99.90;;;;;;5063997;28;20364;-64
2024/01/15 13:19:47;;;;;;;;;;;2.50;99.90;;;;;;5086297;28;19974;-64
2024/01/15 13:22:14;;;;;;;;;;;2.70;99.90;;;;;;5086730;28;19931;-64
2024/01/15 13:24:39;;;;;;;;;;;2.40;99.90;;;;;;5072408;28;19927;-64
2024/01/15 13:27:05;;;;;;;;;;;2.40;99.90;;;;;;5067935;28;23294;-64
2024/01/15 13:29:31;;;;;;;;;;;2.40;99.90;;;;;;5079908;28;20004;-64
2024/01/15 13:31:58;;;;;;;;;;;2.50;99.90;;;;;;5081164;28;19993;-64
2024/01/15 13:34:24;;;;;;;;;;;2.70;99.90;;;;;;5082487;28;20568;-64
2024/01/15 13:36:53;;;;;;;;;;;2.80;99.90;;;;;;5080630;28;19947;-65
2024/01/15 13:39:20;;;;;;;;;;;2.90;99.90;;;;;;5078356;28;19932;-64
2024/01/15 13:41:46;;;;;;;;;;;3.00;99.90;;;;;;5087936;28;20528;-63
2024/01/15 13:44:12;;;;;;;;;;;3.00;99.90;;;;;;5077498;28;20483;-64
2024/01/15 13:46:38;;;;;;;;;;;3.10;99.90;;;;;;5068094;28;20412;-64
2024/01/15 13:49:05;;;;;;;;;;;2.90;99.90;;;;;;5068734;28;19923;-64
2024/01/15 13:51:31;;;;;;;;;;;2.80;99.90;;;;;;5079973;28;20302;-63
2024/01/15 13:53:57;;;;;;;;;;;2.70;99.90;;;;;;5080367;28;19924;-64
2024/01/15 13:56:23;;;;;;;;;;;2.60;99.90;;;;;;5080492;28;20394;-64
2024/01/15 13:58:49;;;;;;;;;;;2.50;99.90;;;;;;5067150;28;20385;-64
2024/01/15 14:01:15;;;;;;;;;;;2.30;99.90;;;;;;5064473;28;19930;-64
2024/01/15 14:03:41;;;;;;;;;;;2.30;99.90;;;;;;5076085;28;19988;-64
2024/01/15 14:06:08;;;;;;;;;;;2.20;99.90;;;;;;5081610;28;20072;-64
2024/01/15 14:08:37;;;;;;;;;;;2.10;99.90;;;;;;5062747;28;20294;-64
2024/01/15 14:11:06;;;;;;;;;;;2.10;99.90;;;;;;5049449;28;19928;-64
2024/01/15 14:13:32;;;;;;;;;;;2.10;99.90;;;;;;5077072;28;19982;-64
2024/01/15 14:15:58;;;;;;;;;;;2.10;99.90;;;;;;5078991;28;20280;-63
2024/01/15 14:18:24;;;;;;;;;;;2.00;99.90;;;;;;5083912;28;20046;-64
2024/01/15 14:20:49;;;;;;;;;;;2.00;99.90;;;;;;5071440;28;20278;-64
2024/01/15 14:23:15;;;;;;;;;;;2.00;99.90;;;;;;5078704;28;19924;-65